Time;durP1;ratioP1;P1;durP2;ratioP2;P2;SDS_P1;SDS_P2;PMS_P1;PMS_P2;Temp;Humidity;BMP_temperature;BMP_pressure;BME280_temperature;BME280_humidity;BME280_pressure;Samples;Min_cycle;Max_cycle;Signal;HPM_P1;HPM_P2
2023/09/29 00:00:13;;;;;;;25.70;14.77;;;18.50;99.90;;;;;;4996071;28;20490;-82
2023/09/29 00:02:41;;;;;;;16.37;14.60;;;18.50;99.90;;;;;;4998227;28;21005;-83
2023/09/29 00:05:09;;;;;;;19.10;14.93;;;18.50;99.90;;;;;;4992896;28;20463;-82
2023/09/29 00:07:37;;;;;;;16.73;14.93;;;18.50;99.90;;;;;;4990526;28;20486;-82
2023/09/29 00:10:08;;;;;;;23.03;13.10;;;18.50;99.90;;;;;;4994663;28;20459;-82
2023/09/29 00:12:35;;;;;;;15.97;14.03;;;18.50;99.90;;;;;;4998501;28;20476;-82
2023/09/29 00:15:03;;;;;;;17.23;15.50;;;18.50;99.90;;;;;;4997303;28;20460;-82
2023/09/29 00:17:29;;;;;;;16.03;14.00;;;18.50;99.90;;;;;;5001017;28;20452;-82
2023/09/29 00:19:58;;;;;;;20.93;17.80;;;18.50;99.90;;;;;;5000418;28;20455;-82
2023/09/29 00:22:25;;;;;;;20.63;18.60;;;18.40;99.90;;;;;;5001548;28;20471;-82
2023/09/29 00:24:51;;;;;;;19.53;17.50;;;18.30;99.90;;;;;;5001012;28;20516;-82
2023/09/29 00:27:19;;;;;;;20.93;18.73;;;18.30;99.90;;;;;;4997691;28;20551;-82
2023/09/29 00:29:45;;;;;;;19.67;16.73;;;18.20;99.90;;;;;;4995483;28;20506;-82
2023/09/29 00:32:12;;;;;;;23.37;18.60;;;18.20;99.90;;;;;;4988533;28;20499;-81
2023/09/29 00:34:39;;;;;;;24.40;18.40;;;18.20;99.90;;;;;;4999440;28;20470;-82
2023/09/29 00:37:09;;;;;;;17.37;15.63;;;18.20;99.90;;;;;;5007214;28;20475;-81
2023/09/29 00:39:36;;;;;;;24.60;17.87;;;18.30;99.90;;;;;;5014687;28;20486;-80
2023/09/29 00:42:06;;;;;;;25.50;18.63;;;18.30;99.90;;;;;;5006475;28;20475;-81
2023/09/29 00:44:33;;;;;;;23.75;19.15;;;18.30;99.90;;;;;;4997835;28;20452;-81
2023/09/29 00:47:00;;;;;;;20.93;18.73;;;18.30;99.90;;;;;;5001845;28;20299;-81
2023/09/29 00:49:29;;;;;;;24.93;17.97;;;18.30;99.90;;;;;;5002904;28;20483;-83
2023/09/29 00:51:59;;;;;;;19.97;17.93;;;18.30;99.90;;;;;;4982213;28;20647;-82
2023/09/29 00:54:29;;;;;;;21.07;17.77;;;18.20;99.90;;;;;;4996659;28;20463;-81
2023/09/29 00:56:56;;;;;;;21.60;19.30;;;18.20;99.90;;;;;;4996402;28;20459;-82
2023/09/29 00:59:24;;;;;;;23.70;18.30;;;18.20;99.90;;;;;;4996300;28;20900;-83
2023/09/29 01:01:52;;;;;;;19.47;17.67;;;18.30;99.90;;;;;;4999460;28;21103;-82
2023/09/29 01:04:19;;;;;;;24.80;20.00;;;18.30;99.90;;;;;;5007651;28;20456;-81
2023/09/29 01:06:46;;;;;;;26.17;21.87;;;18.30;99.90;;;;;;5019429;28;20488;-81
2023/09/29 01:09:14;;;;;;;23.57;19.50;;;18.30;99.90;;;;;;5007508;28;20433;-80
2023/09/29 01:11:43;;;;;;;22.73;20.43;;;18.40;99.90;;;;;;5002613;28;20530;-80
2023/09/29 01:14:11;;;;;;;22.70;20.27;;;18.40;99.90;;;;;;5018722;28;20457;-81
2023/09/29 01:16:38;;;;;;;24.07;20.93;;;18.40;99.90;;;;;;5014532;28;20480;-80
2023/09/29 01:19:11;;;;;;;22.37;19.97;;;18.30;99.90;;;;;;5014595;28;20459;-80
2023/09/29 01:21:38;;;;;;;23.20;20.90;;;18.40;99.90;;;;;;5016619;28;20484;-80
2023/09/29 01:24:07;;;;;;;20.25;18.33;;;18.40;99.90;;;;;;5005973;28;20459;-80
2023/09/29 01:26:34;;;;;;;25.40;21.83;;;18.50;99.90;;;;;;5012143;28;20209;-80
2023/09/29 01:29:01;;;;;;;24.97;22.40;;;18.50;99.90;;;;;;5002978;28;20460;-81
2023/09/29 01:31:28;;;;;;;24.50;22.00;;;18.40;99.90;;;;;;5018379;28;20515;-80
2023/09/29 01:33:55;;;;;;;31.23;23.57;;;18.30;99.90;;;;;;5011163;28;20465;-80
2023/09/29 01:36:22;;;;;;;24.47;21.83;;;18.20;99.90;;;;;;5010241;28;20475;-80
2023/09/29 01:38:49;;;;;;;21.55;19.35;;;18.10;99.90;;;;;;5008380;28;20426;-80
2023/09/29 01:41:17;;;;;;;25.37;22.90;;;18.10;99.90;;;;;;5007874;28;20209;-80
2023/09/29 01:43:50;;;;;;;25.17;22.77;;;18.10;99.90;;;;;;5018688;28;20476;-81
2023/09/29 01:46:17;;;;;;;25.40;21.50;;;18.10;99.90;;;;;;5010729;28;20188;-81
2023/09/29 01:48:44;;;;;;;28.23;25.17;;;18.00;99.90;;;;;;5015414;28;20507;-83
2023/09/29 01:51:12;;;;;;;28.60;25.70;;;18.00;99.90;;;;;;4993760;28;20303;-82
2023/09/29 01:53:39;;;;;;;30.52;27.33;;;17.90;99.90;;;;;;5006506;28;20446;-82
2023/09/29 01:56:05;;;;;;;33.75;26.35;;;17.90;99.90;;;;;;5012026;28;20217;-82
2023/09/29 01:58:33;;;;;;;31.40;27.88;;;17.90;99.90;;;;;;4993069;28;20242;-81
2023/09/29 02:01:00;;;;;;;32.33;27.07;;;17.90;99.90;;;;;;5000566;28;20215;-81
2023/09/29 02:03:28;;;;;;;32.42;29.08;;;17.90;99.90;;;;;;5002553;28;20447;-82
2023/09/29 02:05:55;;;;;;;30.87;27.77;;;17.90;99.90;;;;;;4992340;28;20217;-82
2023/09/29 02:08:22;;;;;;;28.17;25.33;;;17.90;99.90;;;;;;4996948;28;20495;-82
2023/09/29 02:10:50;;;;;;;29.33;26.27;;;17.80;99.90;;;;;;4997152;28;20519;-82
2023/09/29 02:13:18;;;;;;;28.27;25.38;;;17.80;99.90;;;;;;4992104;28;20318;-82
2023/09/29 02:15:46;;;;;;;26.83;23.67;;;17.80;99.90;;;;;;4998948;28;20201;-81
2023/09/29 02:18:12;;;;;;;28.90;25.70;;;17.80;99.90;;;;;;4999004;28;20542;-81
2023/09/29 02:20:46;;;;;;;33.22;28.92;;;17.80;99.90;;;;;;4992292;28;20513;-83
2023/09/29 02:23:14;;;;;;;31.58;28.10;;;17.80;99.90;;;;;;4992997;28;20219;-82
2023/09/29 02:25:42;;;;;;;31.63;28.45;;;17.80;99.90;;;;;;5000256;28;20309;-83
2023/09/29 02:28:10;;;;;;;25.83;23.23;;;17.80;99.90;;;;;;4998814;28;20213;-82
2023/09/29 02:30:42;;;;;;;27.15;24.35;;;17.90;99.90;;;;;;4997281;28;20682;-82
2023/09/29 02:33:10;;;;;;;30.13;27.20;;;17.90;99.90;;;;;;4987600;28;20299;-82
2023/09/29 02:35:37;;;;;;;29.20;26.50;;;17.90;99.90;;;;;;4986414;28;20229;-82
2023/09/29 02:38:04;;;;;;;28.33;25.45;;;17.90;99.90;;;;;;4987038;28;20215;-83
2023/09/29 02:40:31;;;;;;;32.45;29.55;;;18.00;99.90;;;;;;4993297;28;20207;-82
2023/09/29 02:42:58;;;;;;;35.00;31.45;;;18.00;99.90;;;;;;4993597;28;20208;-82
2023/09/29 02:45:25;;;;;;;31.15;28.20;;;17.90;99.90;;;;;;4994156;28;20626;-82
2023/09/29 02:47:53;;;;;;;33.97;30.40;;;17.90;99.90;;;;;;4994757;28;20200;-83
2023/09/29 02:50:21;;;;;;;31.27;28.17;;;17.90;99.90;;;;;;4989818;28;20299;-82
2023/09/29 02:52:48;;;;;;;30.88;27.10;;;17.90;99.90;;;;;;4987926;28;20256;-83
2023/09/29 02:55:16;;;;;;;31.50;28.13;;;17.90;99.90;;;;;;5005774;28;20214;-81
2023/09/29 02:57:43;;;;;;;29.57;26.57;;;18.00;99.90;;;;;;5005411;28;20189;-81
2023/09/29 03:00:16;;;;;;;30.92;27.92;;;18.10;99.90;;;;;;5014311;28;20430;-81
2023/09/29 03:02:44;;;;;;;32.33;26.95;;;18.00;99.90;;;;;;5008672;28;20249;-82
2023/09/29 03:05:14;;;;;;;29.33;26.42;;;18.00;99.90;;;;;;5000632;28;20308;-82
2023/09/29 03:07:42;;;;;;;31.13;28.20;;;18.00;99.90;;;;;;4993598;28;20215;-82
2023/09/29 03:10:12;;;;;;;31.87;28.77;;;18.00;99.90;;;;;;4996285;28;20201;-82
2023/09/29 03:12:39;;;;;;;32.80;29.87;;;18.00;99.90;;;;;;4981659;28;20526;-82
2023/09/29 03:15:08;;;;;;;33.83;30.48;;;18.00;99.90;;;;;;4995548;28;20546;-83
2023/09/29 03:17:35;;;;;;;33.38;30.15;;;18.00;99.90;;;;;;4997831;28;20261;-82
2023/09/29 03:20:08;;;;;;;34.23;31.10;;;18.00;99.90;;;;;;4992033;28;20682;-83
2023/09/29 03:22:37;;;;;;;36.60;32.55;;;18.00;99.90;;;;;;4995265;28;20475;-82
2023/09/29 03:25:06;;;;;;;35.83;32.37;;;18.10;99.90;;;;;;5007344;28;20267;-82
2023/09/29 03:27:34;;;;;;;30.17;26.98;;;18.00;99.90;;;;;;4999536;28;20534;-83
2023/09/29 03:30:01;;;;;;;28.02;25.35;;;18.10;99.90;;;;;;4996144;28;20220;-83
2023/09/29 03:32:29;;;;;;;34.10;28.53;;;18.10;99.90;;;;;;4991888;28;20295;-83
2023/09/29 03:35:04;;;;;;;29.65;26.77;;;18.20;99.90;;;;;;4986975;28;20472;-83
2023/09/29 03:37:35;;;;;;;31.57;28.30;;;18.20;99.90;;;;;;4985616;28;20245;-82
2023/09/29 03:40:06;;;;;;;33.60;30.45;;;18.20;99.90;;;;;;4990152;28;20454;-83
2023/09/29 03:42:35;;;;;;;33.40;30.20;;;18.20;99.90;;;;;;4993920;28;20224;-82
2023/09/29 03:45:05;;;;;;;32.63;29.60;;;18.00;99.90;;;;;;5007664;28;20444;-82
2023/09/29 03:47:33;;;;;;;31.97;28.77;;;18.30;99.90;;;;;;5000671;28;20448;-83
2023/09/29 03:50:00;;;;;;;29.60;26.90;;;18.20;99.90;;;;;;4998091;28;20443;-83
2023/09/29 03:52:27;;;;;;;29.17;26.43;;;18.20;99.90;;;;;;5006291;28;20497;-82
2023/09/29 03:54:53;;;;;;;30.73;28.03;;;18.20;99.90;;;;;;4999149;28;20459;-82
2023/09/29 03:57:22;;;;;;;31.97;28.07;;;18.30;99.90;;;;;;5006777;28;20447;-81
2023/09/29 03:59:50;;;;;;;28.73;25.87;;;18.30;99.90;;;;;;5002370;28;20490;-82
2023/09/29 04:02:17;;;;;;;29.10;26.13;;;18.30;99.90;;;;;;5005491;28;20499;-82
2023/09/29 04:04:44;;;;;;;27.83;25.13;;;18.30;99.90;;;;;;5007112;28;20458;-82
2023/09/29 04:07:11;;;;;;;32.30;29.17;;;18.40;99.90;;;;;;5006600;28;20515;-82
2023/09/29 04:09:39;;;;;;;30.80;27.73;;;18.40;99.90;;;;;;5013295;28;20524;-81
2023/09/29 04:12:06;;;;;;;30.10;27.00;;;18.40;99.90;;;;;;5012880;28;20488;-82
2023/09/29 04:14:33;;;;;;;26.37;23.90;;;18.40;99.90;;;;;;5014036;28;20471;-81
2023/09/29 04:17:02;;;;;;;35.70;32.10;;;18.50;99.90;;;;;;5010866;28;20452;-81
2023/09/29 04:19:28;;;;;;;35.13;31.70;;;18.40;99.90;;;;;;5013793;28;20463;-82
2023/09/29 04:21:55;;;;;;;32.50;29.30;;;18.40;99.90;;;;;;5014619;28;20468;-82
2023/09/29 04:24:22;;;;;;;30.17;27.33;;;18.30;99.90;;;;;;5015215;28;20475;-81
2023/09/29 04:26:49;;;;;;;33.90;30.80;;;18.20;99.90;;;;;;5018427;28;20468;-80
2023/09/29 04:29:16;;;;;;;32.33;29.57;;;18.20;99.90;;;;;;5019651;28;20507;-80
2023/09/29 04:31:42;;;;;;;34.97;31.60;;;18.30;99.90;;;;;;5018498;28;20521;-82
2023/09/29 04:34:11;;;;;;;29.37;26.47;;;18.40;99.90;;;;;;5012828;28;20440;-80
2023/09/29 04:36:38;;;;;;;35.00;27.20;;;18.30;99.90;;;;;;5015558;28;20515;-82
2023/09/29 04:39:04;;;;;;;32.00;28.93;;;18.40;99.90;;;;;;5015985;28;20433;-80
2023/09/29 04:41:31;;;;;;;34.53;31.50;;;18.40;99.90;;;;;;5016867;28;20488;-81
2023/09/29 04:44:00;;;;;;;31.43;28.23;;;18.30;99.90;;;;;;5009656;28;20484;-82
2023/09/29 04:46:27;;;;;;;33.80;30.57;;;18.20;99.90;;;;;;5009073;28;20452;-81
2023/09/29 04:48:54;;;;;;;32.93;29.63;;;18.30;99.90;;;;;;5015881;28;20444;-81
2023/09/29 04:51:22;;;;;;;35.50;31.93;;;18.30;99.90;;;;;;5016938;28;20510;-81
2023/09/29 04:53:49;;;;;;;32.53;29.47;;;18.30;99.90;;;;;;5016075;28;20546;-81
2023/09/29 04:56:16;;;;;;;31.42;28.63;;;18.20;99.90;;;;;;5016757;28;20456;-81
2023/09/29 04:58:43;;;;;;;32.75;29.48;;;18.30;99.90;;;;;;5015982;28;20231;-81
2023/09/29 05:01:17;;;;;;;32.20;28.63;;;18.20;99.90;;;;;;5015988;28;20228;-80
2023/09/29 05:03:44;;;;;;;33.60;30.50;;;18.30;99.90;;;;;;5016863;28;20478;-81
2023/09/29 05:06:11;;;;;;;33.70;30.50;;;18.20;99.90;;;;;;5017691;28;20435;-81
2023/09/29 05:08:40;;;;;;;37.00;33.07;;;18.20;99.90;;;;;;5017155;28;20448;-82
2023/09/29 05:11:07;;;;;;;37.60;32.30;;;18.10;99.90;;;;;;5019125;28;20469;-81
2023/09/29 05:13:34;;;;;;;33.97;30.33;;;18.20;99.90;;;;;;5017673;28;20554;-82
2023/09/29 05:16:01;;;;;;;41.05;36.90;;;18.10;99.90;;;;;;5017603;28;20444;-81
2023/09/29 05:18:28;;;;;;;36.80;33.03;;;18.00;99.90;;;;;;5015015;28;20228;-82
2023/09/29 05:20:55;;;;;;;33.60;30.00;;;18.10;99.90;;;;;;5009118;28;20472;-83
2023/09/29 05:23:21;;;;;;;37.15;33.45;;;18.10;99.90;;;;;;5003759;28;20452;-81
2023/09/29 05:25:50;;;;;;;38.20;33.97;;;18.00;99.90;;;;;;5004105;28;20382;-82
2023/09/29 05:28:16;;;;;;;36.83;33.03;;;18.00;99.90;;;;;;5000724;28;20972;-82
2023/09/29 05:30:53;;;;;;;35.27;31.87;;;18.00;99.90;;;;;;5002681;28;20522;-83
2023/09/29 05:33:20;;;;;;;36.10;30.13;;;18.00;99.90;;;;;;4989015;28;20503;-82
2023/09/29 05:35:47;;;;;;;40.17;34.27;;;18.00;99.90;;;;;;4990985;28;20212;-82
2023/09/29 05:38:14;;;;;;;33.40;29.73;;;18.00;99.90;;;;;;4990756;28;20977;-82
2023/09/29 05:40:40;;;;;;;33.10;29.70;;;18.10;99.90;;;;;;5003867;28;21001;-82
2023/09/29 05:43:10;;;;;;;30.58;27.60;;;18.10;99.90;;;;;;5004267;28;20440;-83
2023/09/29 05:45:37;;;;;;;36.72;33.20;;;18.10;99.90;;;;;;5007111;28;20218;-81
2023/09/29 05:48:04;;;;;;;31.33;28.35;;;18.20;99.90;;;;;;5004507;28;20297;-82
2023/09/29 05:50:31;;;;;;;30.87;27.57;;;18.20;99.90;;;;;;5004565;28;20271;-82
2023/09/29 05:52:58;;;;;;;38.23;30.93;;;18.30;99.90;;;;;;5012850;28;20543;-81
2023/09/29 05:55:25;;;;;;;33.63;30.23;;;18.20;99.90;;;;;;5009888;28;20452;-81
2023/09/29 05:57:52;;;;;;;38.30;31.93;;;18.20;99.90;;;;;;5007865;28;20436;-81
2023/09/29 06:00:21;;;;;;;30.40;27.47;;;18.20;99.90;;;;;;5013784;28;20455;-80
2023/09/29 06:02:48;;;;;;;33.20;29.50;;;18.30;99.90;;;;;;5015466;28;20483;-82
2023/09/29 06:05:15;;;;;;;32.77;29.60;;;18.30;99.90;;;;;;5015409;28;20475;-82
2023/09/29 06:07:42;;;;;;;34.47;28.67;;;18.30;99.90;;;;;;5015116;28;20507;-82
2023/09/29 06:10:10;;;;;;;29.40;26.47;;;18.30;99.90;;;;;;5010471;28;20440;-82
2023/09/29 06:12:37;;;;;;;32.57;26.60;;;18.40;99.90;;;;;;5013163;28;20485;-82
2023/09/29 06:15:05;;;;;;;30.80;27.30;;;18.40;99.90;;;;;;5007719;28;20476;-81
2023/09/29 06:17:33;;;;;;;30.90;24.87;;;18.40;99.90;;;;;;5008222;28;20472;-83
2023/09/29 06:20:00;;;;;;;26.50;24.10;;;18.40;99.90;;;;;;5013112;28;20491;-81
2023/09/29 06:22:27;;;;;;;27.42;24.75;;;18.50;99.90;;;;;;5015224;28;20959;-82
2023/09/29 06:24:54;;;;;;;24.50;22.10;;;18.40;99.90;;;;;;5007567;28;20189;-81
2023/09/29 06:27:21;;;;;;;24.70;22.27;;;18.50;99.90;;;;;;5012648;28;20479;-82
2023/09/29 06:29:50;;;;;;;25.00;22.30;;;18.40;99.90;;;;;;5008645;28;20471;-82
2023/09/29 06:32:17;;;;;;;25.53;22.90;;;18.50;99.90;;;;;;5009832;28;20487;-82
2023/09/29 06:34:45;;;;;;;26.03;22.03;;;18.50;99.90;;;;;;5015242;28;20482;-81
2023/09/29 06:37:12;;;;;;;22.48;19.02;;;18.50;99.90;;;;;;5013551;28;20443;-81
2023/09/29 06:39:39;;;;;;;31.13;25.07;;;18.60;99.90;;;;;;5016307;28;20204;-82
2023/09/29 06:42:07;;;;;;;19.97;18.00;;;18.50;99.90;;;;;;5013977;28;20472;-82
2023/09/29 06:44:34;;;;;;;22.20;19.90;;;18.60;99.90;;;;;;5010146;28;20620;-83
2023/09/29 06:47:01;;;;;;;21.53;19.30;;;18.70;99.90;;;;;;5016457;28;20443;-82
2023/09/29 06:49:28;;;;;;;23.27;20.07;;;18.80;99.90;;;;;;5006988;28;20460;-81
2023/09/29 06:51:56;;;;;;;23.40;20.23;;;18.90;99.90;;;;;;5007037;28;20491;-81
2023/09/29 06:54:24;;;;;;;19.93;17.40;;;19.00;99.90;;;;;;5009512;28;20495;-86
2023/09/29 06:56:51;;;;;;;22.10;18.80;;;19.20;99.90;;;;;;5005758;28;20448;-83
2023/09/29 06:59:17;;;;;;;20.20;18.30;;;19.20;99.90;;;;;;5016070;28;20460;-83
2023/09/29 07:01:44;;;;;;;20.17;17.17;;;19.40;99.90;;;;;;5009900;28;20504;-84
2023/09/29 07:04:11;;;;;;;22.07;16.57;;;19.60;99.90;;;;;;4996000;28;20531;-84
2023/09/29 07:06:38;;;;;;;13.70;12.30;;;20.00;99.90;;;;;;5006089;28;20463;-84
2023/09/29 07:09:07;;;;;;;16.30;14.60;;;20.30;99.90;;;;;;5004977;28;20452;-83
2023/09/29 07:11:34;;;;;;;17.13;15.33;;;20.40;99.90;;;;;;5005978;28;20470;-83
2023/09/29 07:14:04;;;;;;;19.63;16.03;;;20.50;99.90;;;;;;5005003;28;20551;-83
2023/09/29 07:16:31;;;;;;;19.97;15.20;;;20.40;99.90;;;;;;5007090;28;20441;-83
2023/09/29 07:18:58;;;;;;;25.20;17.93;;;20.40;99.90;;;;;;5007399;28;20449;-83
2023/09/29 07:21:25;;;;;;;19.90;15.30;;;20.30;99.90;;;;;;5012575;28;20466;-83
2023/09/29 07:23:52;;;;;;;14.90;12.10;;;20.30;99.90;;;;;;5008643;28;20444;-83
2023/09/29 07:26:21;;;;;;;12.63;11.30;;;20.40;99.90;;;;;;5013882;28;20453;-83
2023/09/29 07:28:48;;;;;;;13.23;11.90;;;20.40;99.90;;;;;;5001965;28;20443;-83
2023/09/29 07:31:15;;;;;;;14.13;11.50;;;20.20;99.90;;;;;;4993920;28;20470;-83
2023/09/29 07:33:42;;;;;;;13.33;12.03;;;20.40;99.90;;;;;;4999085;28;20508;-82
2023/09/29 07:36:09;;;;;;;12.80;10.27;;;20.10;99.90;;;;;;5011122;28;20430;-82
2023/09/29 07:38:37;;;;;;;10.77;9.60;;;20.40;99.90;;;;;;5011170;28;20445;-82
2023/09/29 07:41:05;;;;;;;11.90;9.20;;;20.50;99.90;;;;;;5001236;28;20533;-82
2023/09/29 07:43:34;;;;;;;13.70;11.33;;;20.70;99.90;;;;;;5010864;28;20438;-81
2023/09/29 07:46:00;;;;;;;14.03;11.03;;;20.80;99.90;;;;;;5015615;28;20461;-80
2023/09/29 07:48:28;;;;;;;11.97;9.50;;;20.80;99.90;;;;;;5009672;28;20466;-81
2023/09/29 07:50:54;;;;;;;10.23;9.20;;;20.80;99.90;;;;;;5003416;28;20451;-80
2023/09/29 07:53:21;;;;;;;12.67;10.20;;;20.80;99.90;;;;;;5002144;28;20490;-80
2023/09/29 07:55:48;;;;;;;10.57;9.43;;;21.00;99.90;;;;;;5000099;28;20903;-81
2023/09/29 07:58:15;;;;;;;10.83;9.27;;;21.00;99.90;;;;;;5014367;28;20448;-81
2023/09/29 08:00:43;;;;;;;11.50;7.67;;;21.30;99.90;;;;;;5005295;28;20451;-80
2023/09/29 08:03:10;;;;;;;10.50;7.33;;;21.40;99.90;;;;;;5003469;28;20471;-81
2023/09/29 08:05:37;;;;;;;8.30;7.60;;;21.80;99.90;;;;;;5000159;28;20456;-81
2023/09/29 08:08:04;;;;;;;11.03;8.00;;;21.90;99.90;;;;;;5015936;28;20485;-82
2023/09/29 08:10:35;;;;;;;9.23;7.77;;;22.00;99.90;;;;;;5016077;28;20439;-83
2023/09/29 08:13:02;;;;;;;8.83;8.00;;;22.10;99.90;;;;;;5013705;28;20491;-83
2023/09/29 08:15:29;;;;;;;7.87;5.93;;;22.40;99.90;;;;;;5016256;28;20475;-82
2023/09/29 08:17:57;;;;;;;7.77;5.53;;;22.50;99.90;;;;;;5015507;28;20443;-82
2023/09/29 08:20:24;;;;;;;13.73;9.73;;;22.60;99.90;;;;;;5014923;28;20463;-83
2023/09/29 08:22:51;;;;;;;8.27;6.17;;;22.50;99.90;;;;;;5015187;28;20457;-83
2023/09/29 08:25:19;;;;;;;7.77;6.70;;;22.40;99.90;;;;;;5005613;28;20464;-83
2023/09/29 08:27:46;;;;;;;10.20;5.83;;;22.50;99.90;;;;;;4993083;28;20458;-83
2023/09/29 08:30:13;;;;;;;8.00;5.70;;;22.50;99.90;;;;;;5013002;28;20519;-83
2023/09/29 08:32:43;;;;;;;8.10;6.10;;;22.20;99.90;;;;;;5015737;28;20455;-83
2023/09/29 08:35:13;;;;;;;11.63;6.87;;;22.00;99.90;;;;;;5019395;28;20502;-83
2023/09/29 08:37:40;;;;;;;8.90;5.50;;;22.00;99.90;;;;;;5019464;28;20454;-82
2023/09/29 08:40:09;;;;;;;7.13;5.70;;;22.00;99.90;;;;;;5017530;28;20454;-83
2023/09/29 08:42:38;;;;;;;7.87;6.87;;;22.00;99.90;;;;;;5014423;28;20513;-83
2023/09/29 08:45:09;;;;;;;6.67;5.13;;;22.00;99.90;;;;;;5015009;28;20471;-84
2023/09/29 08:47:37;;;;;;;12.00;6.13;;;22.00;99.90;;;;;;5015108;28;20439;-82
2023/09/29 08:50:05;;;;;;;16.47;6.73;;;22.10;99.90;;;;;;5014117;28;20509;-82
2023/09/29 08:52:34;;;;;;;8.10;5.63;;;22.10;99.90;;;;;;5013867;28;20639;-83
2023/09/29 08:55:02;;;;;;;6.50;5.33;;;22.00;99.90;;;;;;5011131;28;20554;-84
2023/09/29 08:57:30;;;;;;;10.73;6.70;;;21.90;99.90;;;;;;5016193;28;20443;-82
2023/09/29 08:59:58;;;;;;;10.10;5.27;;;21.80;99.90;;;;;;5015416;28;20434;-82
2023/09/29 09:02:26;;;;;;;9.03;5.43;;;21.90;99.90;;;;;;5018540;28;20476;-82
2023/09/29 09:04:52;;;;;;;7.47;6.30;;;21.80;99.90;;;;;;5018830;28;20459;-81
2023/09/29 09:07:21;;;;;;;6.17;5.57;;;21.80;99.90;;;;;;5012292;28;20441;-83
2023/09/29 09:09:50;;;;;;;6.47;5.33;;;21.80;99.90;;;;;;5010504;28;20450;-82
2023/09/29 09:12:18;;;;;;;13.70;6.07;;;21.80;99.90;;;;;;5011038;28;20491;-82
2023/09/29 09:14:46;;;;;;;16.30;6.00;;;21.80;99.90;;;;;;5011216;28;20541;-83
2023/09/29 09:17:13;;;;;;;5.60;4.80;;;21.70;99.90;;;;;;5010120;28;20784;-84
2023/09/29 09:19:45;;;;;;;13.93;11.57;;;21.70;99.90;;;;;;5007229;28;20454;-83
2023/09/29 09:22:16;;;;;;;9.23;5.23;;;21.80;99.90;;;;;;5000395;28;20473;-83
2023/09/29 09:24:43;;;;;;;7.33;4.80;;;21.90;99.90;;;;;;5010630;28;20443;-82
2023/09/29 09:27:13;;;;;;;7.53;5.13;;;21.90;99.90;;;;;;5009537;28;20457;-83
2023/09/29 09:29:42;;;;;;;7.70;4.67;;;22.00;99.90;;;;;;4999209;28;20447;-85
2023/09/29 09:32:10;;;;;;;5.07;3.93;;;22.10;99.90;;;;;;4996682;28;20472;-87
2023/09/29 09:34:39;;;;;;;5.90;4.33;;;22.10;99.90;;;;;;5011669;28;20599;-85
2023/09/29 09:37:07;;;;;;;6.70;4.77;;;22.00;99.90;;;;;;5016952;28;20481;-85
2023/09/29 09:39:35;;;;;;;6.53;4.67;;;22.00;99.90;;;;;;5008265;28;20440;-86
2023/09/29 09:42:05;;;;;;;9.70;4.10;;;22.20;99.90;;;;;;5017648;28;20480;-85
2023/09/29 09:44:36;;;;;;;5.20;4.00;;;22.20;99.90;;;;;;5005625;28;20456;-86
2023/09/29 09:47:04;;;;;;;9.13;4.30;;;22.50;99.90;;;;;;5008084;28;20472;-87
2023/09/29 09:49:38;;;;;;;7.90;4.93;;;22.60;99.90;;;;;;5012338;28;20931;-86
2023/09/29 09:52:08;;;;;;;6.23;4.67;;;22.50;99.90;;;;;;5007766;28;20482;-84
2023/09/29 09:54:50;;;;;;;6.87;4.80;;;22.60;99.90;;;;;;5009457;28;20507;-86
2023/09/29 09:57:24;;;;;;;10.03;4.30;;;22.60;99.90;;;;;;5009884;28;20453;-86
2023/09/29 09:59:59;;;;;;;8.20;3.90;;;23.20;99.90;;;;;;5009144;28;20463;-88
2023/09/29 10:02:27;;;;;;;6.43;3.43;;;23.70;99.90;;;;;;5002730;28;20489;-84
2023/09/29 10:04:55;;;;;;;7.23;3.30;;;24.40;99.90;;;;;;5015312;28;20438;-82
2023/09/29 10:07:23;;;;;;;4.80;3.50;;;24.60;99.90;;;;;;5016063;28;20925;-84
2023/09/29 10:09:51;;;;;;;6.13;3.63;;;25.10;99.90;;;;;;5012683;28;20483;-82
2023/09/29 10:12:25;;;;;;;5.67;3.43;;;25.20;99.90;;;;;;5009672;28;20556;-83
2023/09/29 10:14:53;;;;;;;5.13;4.30;;;25.20;99.90;;;;;;5013787;28;20476;-84
2023/09/29 10:17:23;;;;;;;5.70;3.43;;;25.10;99.90;;;;;;5007311;28;20614;-83
2023/09/29 10:19:54;;;;;;;5.57;4.60;;;25.00;99.90;;;;;;5010672;28;20436;-83
2023/09/29 10:22:26;;;;;;;5.23;3.20;;;25.10;99.90;;;;;;5010811;28;20516;-84
2023/09/29 10:24:56;;;;;;;8.53;4.77;;;25.20;99.90;;;;;;5008292;28;20803;-83
2023/09/29 10:27:30;;;;;;;7.50;4.40;;;25.30;99.90;;;;;;5002701;28;20541;-84
2023/09/29 10:30:17;;;;;;;4.60;3.80;;;25.50;99.90;;;;;;5003461;28;20447;-84
2023/09/29 10:32:47;;;;;;;5.00;3.00;;;25.50;99.90;;;;;;5002375;28;20449;-83
2023/09/29 10:35:19;;;;;;;5.23;4.10;;;25.50;99.90;;;;;;5005118;28;20498;-83
2023/09/29 10:37:54;;;;;;;5.00;3.17;;;25.80;99.90;;;;;;4997867;28;20508;-85
2023/09/29 10:40:27;;;;;;;6.33;3.63;;;26.10;99.90;;;;;;5005494;28;20444;-85
2023/09/29 10:42:56;;;;;;;6.20;3.43;;;26.10;99.90;;;;;;5003091;28;20496;-86
2023/09/29 10:45:30;;;;;;;3.67;2.80;;;26.00;99.90;;;;;;5001420;28;20499;-84
2023/09/29 10:48:02;;;;;;;5.67;3.80;;;25.60;99.90;;;;;;5002351;28;20459;-87
2023/09/29 10:50:29;;;;;;;4.57;3.10;;;25.70;99.90;;;;;;4998652;28;20441;-84
2023/09/29 10:52:56;;;;;;;4.20;3.30;;;25.60;99.90;;;;;;5010182;28;20521;-83
2023/09/29 10:55:23;;;;;;;3.50;2.53;;;25.60;99.90;;;;;;5008133;28;20661;-84
2023/09/29 10:57:51;;;;;;;8.30;3.17;;;25.40;99.90;;;;;;5006170;28;20521;-83
2023/09/29 11:00:19;;;;;;;5.70;2.60;;;25.30;99.90;;;;;;5002463;28;20484;-82
2023/09/29 11:02:49;;;;;;;3.80;3.07;;;25.10;99.90;;;;;;5002793;28;20465;-83
2023/09/29 11:05:17;;;;;;;3.23;2.60;;;25.00;99.90;;;;;;5002355;28;20439;-84
2023/09/29 11:07:47;;;;;;;3.40;2.67;;;25.00;99.90;;;;;;5005505;28;20458;-83
2023/09/29 11:10:17;;;;;;;4.37;2.63;;;24.90;99.90;;;;;;4998914;28;20472;-83
2023/09/29 11:12:46;;;;;;;3.10;2.80;;;25.00;99.90;;;;;;5004420;28;20559;-84
2023/09/29 11:15:14;;;;;;;3.10;2.60;;;24.70;99.90;;;;;;5001995;28;20528;-83
2023/09/29 11:17:50;;;;;;;4.57;2.77;;;24.90;99.90;;;;;;4996447;28;20485;-82
2023/09/29 11:20:25;;;;;;;5.63;2.57;;;25.00;99.90;;;;;;5014643;28;20482;-84
2023/09/29 11:23:11;;;;;;;4.07;2.80;;;25.30;99.90;;;;;;5016111;28;20495;-83
2023/09/29 11:25:49;;;;;;;4.73;3.40;;;25.50;99.90;;;;;;5006494;28;20476;-83
2023/09/29 11:28:24;;;;;;;5.80;3.30;;;25.50;99.90;;;;;;5006199;28;20450;-86
2023/09/29 11:30:51;;;;;;;7.10;3.10;;;25.60;99.90;;;;;;4999854;28;20470;-83
2023/09/29 11:33:20;;;;;;;4.43;2.80;;;25.60;99.90;;;;;;4999949;28;20448;-82
2023/09/29 11:35:48;;;;;;;4.50;2.70;;;25.40;99.90;;;;;;4993797;28;20481;-84
2023/09/29 11:38:19;;;;;;;5.10;3.07;;;25.40;99.90;;;;;;4998618;28;20500;-84
2023/09/29 11:40:46;;;;;;;3.77;2.60;;;25.20;99.90;;;;;;4992020;28;20447;-83
2023/09/29 11:43:42;;;;;;;4.50;2.97;;;25.00;99.90;;;;;;4992466;28;20931;-83
2023/09/29 11:46:25;;;;;;;5.20;3.30;;;24.80;99.90;;;;;;5009348;28;20484;-85
2023/09/29 11:49:15;;;;;;;2.60;2.40;;;24.80;99.90;;;;;;5003750;28;20444;-86
2023/09/29 11:51:42;;;;;;;4.00;2.90;;;24.80;99.90;;;;;;5008969;28;20536;-85
2023/09/29 11:54:09;;;;;;;5.63;2.70;;;24.70;99.90;;;;;;5007986;28;20480;-84
2023/09/29 11:56:36;;;;;;;5.47;2.50;;;24.70;99.90;;;;;;5013363;28;20524;-82
2023/09/29 11:59:03;;;;;;;4.87;2.63;;;24.70;99.90;;;;;;5003727;28;20548;-84
2023/09/29 12:01:30;;;;;;;8.80;3.20;;;24.90;99.90;;;;;;5006161;28;20457;-84
2023/09/29 12:03:58;;;;;;;4.23;2.30;;;25.00;99.90;;;;;;5009046;28;20470;-85
2023/09/29 12:06:25;;;;;;;5.60;3.43;;;25.40;99.90;;;;;;5001912;28;20539;-85
2023/09/29 12:08:52;;;;;;;4.20;2.73;;;25.40;99.90;;;;;;5001842;28;20446;-84
2023/09/29 12:11:20;;;;;;;3.60;2.80;;;25.30;99.90;;;;;;5008471;28;20464;-84
2023/09/29 12:13:47;;;;;;;5.20;3.57;;;25.10;99.90;;;;;;4998402;28;20625;-85
2023/09/29 12:16:15;;;;;;;8.40;3.50;;;24.90;99.90;;;;;;5000900;28;20939;-85
2023/09/29 12:18:42;;;;;;;4.00;2.60;;;24.90;99.90;;;;;;5011493;28;20451;-83
2023/09/29 12:21:10;;;;;;;3.43;2.93;;;24.90;99.90;;;;;;5018091;28;20477;-84
2023/09/29 12:23:38;;;;;;;7.83;3.27;;;24.90;99.90;;;;;;5013516;28;20441;-84
2023/09/29 12:26:06;;;;;;;3.63;2.60;;;24.80;99.90;;;;;;5012893;28;20457;-84
2023/09/29 12:28:35;;;;;;;4.37;3.50;;;24.90;99.90;;;;;;5011935;28;20505;-84
2023/09/29 12:31:02;;;;;;;5.57;3.40;;;24.90;99.90;;;;;;5012444;28;20471;-84
2023/09/29 12:33:29;;;;;;;5.90;3.03;;;25.00;99.90;;;;;;5012455;28;20458;-85
2023/09/29 12:35:56;;;;;;;6.00;3.20;;;25.20;99.90;;;;;;5017237;28;20506;-84
2023/09/29 12:38:30;;;;;;;6.50;3.73;;;25.20;99.90;;;;;;5016705;28;20444;-84